sensor_id;sensor_type;location;lat;lon;timestamp;pressure;altitude;pressure_sealevel;temperature;humidity
77149;BME280;66122;47.130;16.844;2024-03-02T00:00:31;98999.66;;;4.55;100.00
77149;BME280;66122;47.130;16.844;2024-03-02T00:10:38;99017.44;;;4.49;100.00
77149;BME280;66122;47.130;16.844;2024-03-02T00:20:43;99021.75;;;4.50;100.00
77149;BME280;66122;47.130;16.844;2024-03-02T00:41:05;99006.44;;;4.81;100.00
77149;BME280;66122;47.130;16.844;2024-03-02T00:51:11;99039.94;;;4.96;100.00
77149;BME280;66122;47.130;16.844;2024-03-02T01:01:14;99043.22;;;5.40;100.00
77149;BME280;66122;47.130;16.844;2024-03-02T01:11:20;99005.84;;;5.34;100.00
77149;BME280;66122;47.130;16.844;2024-03-02T01:21:25;98996.13;;;5.17;100.00
77149;BME280;66122;47.130;16.844;2024-03-02T01:31:29;99015.88;;;5.05;100.00
77149;BME280;66122;47.130;16.844;2024-03-02T01:41:32;98937.38;;;4.60;100.00
77149;BME280;66122;47.130;16.844;2024-03-02T01:51:36;98983.94;;;4.96;100.00
77149;BME280;66122;47.130;16.844;2024-03-02T02:01:39;98981.47;;;5.11;100.00
77149;BME280;66122;47.130;16.844;2024-03-02T02:11:42;98995.16;;;4.99;100.00
77149;BME280;66122;47.130;16.844;2024-03-02T02:21:49;98954.59;;;4.86;100.00
77149;BME280;66122;47.130;16.844;2024-03-02T02:31:54;98950.72;;;4.95;100.00
77149;BME280;66122;47.130;16.844;2024-03-02T02:42:03;98951.31;;;5.20;100.00
77149;BME280;66122;47.130;16.844;2024-03-02T02:52:12;98938.41;;;5.16;100.00
77149;BME280;66122;47.130;16.844;2024-03-02T03:02:18;98964.69;;;5.34;100.00
77149;BME280;66122;47.130;16.844;2024-03-02T03:12:21;98950.50;;;5.38;100.00
77149;BME280;66122;47.130;16.844;2024-03-02T03:22:25;98904.91;;;5.21;100.00
77149;BME280;66122;47.130;16.844;2024-03-02T03:32:28;98913.00;;;5.16;100.00
77149;BME280;66122;47.130;16.844;2024-03-02T03:42:30;98908.25;;;5.24;100.00
77149;BME280;66122;47.130;16.844;2024-03-02T03:52:36;98943.09;;;5.65;100.00
77149;BME280;66122;47.130;16.844;2024-03-02T04:02:39;98943.34;;;5.78;100.00
77149;BME280;66122;47.130;16.844;2024-03-02T04:12:45;98962.16;;;5.89;100.00
77149;BME280;66122;47.130;16.844;2024-03-02T04:22:48;98974.09;;;5.96;100.00
77149;BME280;66122;47.130;16.844;2024-03-02T04:32:51;98978.13;;;6.03;100.00
77149;BME280;66122;47.130;16.844;2024-03-02T04:42:57;98957.66;;;5.72;100.00
77149;BME280;66122;47.130;16.844;2024-03-02T04:53:03;98993.97;;;6.02;100.00
77149;BME280;66122;47.130;16.844;2024-03-02T05:03:07;98994.31;;;5.94;100.00
77149;BME280;66122;47.130;16.844;2024-03-02T05:13:12;99003.47;;;5.85;100.00
77149;BME280;66122;47.130;16.844;2024-03-02T05:23:15;98997.81;;;5.76;100.00
77149;BME280;66122;47.130;16.844;2024-03-02T05:33:18;99065.03;;;6.19;100.00
77149;BME280;66122;47.130;16.844;2024-03-02T05:43:20;99011.19;;;5.90;100.00
77149;BME280;66122;47.130;16.844;2024-03-02T05:53:24;99055.38;;;6.01;100.00
77149;BME280;66122;47.130;16.844;2024-03-02T06:03:26;99067.03;;;5.95;100.00
77149;BME280;66122;47.130;16.844;2024-03-02T06:13:31;99044.50;;;6.08;100.00
77149;BME280;66122;47.130;16.844;2024-03-02T06:23:35;99029.78;;;6.04;100.00
77149;BME280;66122;47.130;16.844;2024-03-02T06:33:43;99066.41;;;6.45;100.00
77149;BME280;66122;47.130;16.844;2024-03-02T06:43:46;99032.34;;;6.42;100.00
77149;BME280;66122;47.130;16.844;2024-03-02T06:53:49;99026.63;;;6.51;100.00
77149;BME280;66122;47.130;16.844;2024-03-02T07:03:53;99066.88;;;6.89;100.00
77149;BME280;66122;47.130;16.844;2024-03-02T07:13:56;99009.91;;;6.86;100.00
77149;BME280;66122;47.130;16.844;2024-03-02T07:23:59;99040.81;;;7.17;100.00
77149;BME280;66122;47.130;16.844;2024-03-02T07:34:06;99076.47;;;7.41;100.00
77149;BME280;66122;47.130;16.844;2024-03-02T07:44:10;99084.19;;;7.44;100.00
77149;BME280;66122;47.130;16.844;2024-03-02T07:54:16;99026.34;;;7.09;100.00
77149;BME280;66122;47.130;16.844;2024-03-02T08:04:19;99044.91;;;7.40;100.00
77149;BME280;66122;47.130;16.844;2024-03-02T08:14:24;99081.47;;;7.63;100.00
77149;BME280;66122;47.130;16.844;2024-03-02T08:24:26;99082.09;;;8.00;100.00
77149;BME280;66122;47.130;16.844;2024-03-02T08:34:35;99067.09;;;9.09;100.00
77149;BME280;66122;47.130;16.844;2024-03-02T08:44:46;99063.47;;;10.66;100.00
77149;BME280;66122;47.130;16.844;2024-03-02T08:54:51;99067.75;;;10.27;100.00
77149;BME280;66122;47.130;16.844;2024-03-02T09:04:53;99089.34;;;10.48;100.00
77149;BME280;66122;47.130;16.844;2024-03-02T09:15:03;99092.19;;;11.38;100.00
77149;BME280;66122;47.130;16.844;2024-03-02T09:25:15;99062.72;;;11.81;100.00
77149;BME280;66122;47.130;16.844;2024-03-02T09:35:27;99052.75;;;12.81;99.46
77149;BME280;66122;47.130;16.844;2024-03-02T09:45:32;99061.22;;;13.45;96.77
77149;BME280;66122;47.130;16.844;2024-03-02T09:55:39;99080.34;;;12.91;99.39
77149;BME280;66122;47.130;16.844;2024-03-02T10:05:46;99058.22;;;11.43;100.00
77149;BME280;66122;47.130;16.844;2024-03-02T10:15:51;99074.06;;;10.92;100.00
77149;BME280;66122;47.130;16.844;2024-03-02T10:26:00;99072.41;;;12.18;100.00
77149;BME280;66122;47.130;16.844;2024-03-02T10:36:07;99067.38;;;11.64;100.00
77149;BME280;66122;47.130;16.844;2024-03-02T10:46:11;99053.88;;;11.67;100.00
77149;BME280;66122;47.130;16.844;2024-03-02T10:56:32;99081.34;;;13.60;99.00
77149;BME280;66122;47.130;16.844;2024-03-02T11:06:48;99087.75;;;12.99;99.80
77149;BME280;66122;47.130;16.844;2024-03-02T11:16:53;99058.84;;;13.18;96.59
77149;BME280;66122;47.130;16.844;2024-03-02T11:26:57;99043.84;;;13.17;92.21
77149;BME280;66122;47.130;16.844;2024-03-02T11:37:03;99039.19;;;13.32;92.68
77149;BME280;66122;47.130;16.844;2024-03-02T11:47:08;99054.56;;;13.39;92.71
77149;BME280;66122;47.130;16.844;2024-03-02T11:57:10;99025.91;;;13.65;92.42
77149;BME280;66122;47.130;16.844;2024-03-02T12:07:21;99014.28;;;13.99;89.60
77149;BME280;66122;47.130;16.844;2024-03-02T12:17:24;99036.56;;;13.65;92.14
77149;BME280;66122;47.130;16.844;2024-03-02T12:27:29;99041.25;;;14.28;89.93
77149;BME280;66122;47.130;16.844;2024-03-02T12:37:32;99017.91;;;13.98;91.56
77149;BME280;66122;47.130;16.844;2024-03-02T12:47:37;99027.84;;;13.85;89.43
77149;BME280;66122;47.130;16.844;2024-03-02T12:57:40;98993.44;;;14.16;84.78
77149;BME280;66122;47.130;16.844;2024-03-02T13:07:47;99002.00;;;14.19;85.61
77149;BME280;66122;47.130;16.844;2024-03-02T13:17:51;98981.41;;;14.21;85.15
77149;BME280;66122;47.130;16.844;2024-03-02T13:27:54;98992.97;;;14.85;83.40
77149;BME280;66122;47.130;16.844;2024-03-02T13:38:04;98996.66;;;14.30;83.79
77149;BME280;66122;47.130;16.844;2024-03-02T13:48:07;98955.78;;;15.35;75.30
77149;BME280;66122;47.130;16.844;2024-03-02T13:58:17;98972.72;;;15.45;72.05
77149;BME280;66122;47.130;16.844;2024-03-02T14:08:25;98985.31;;;14.06;79.68
77149;BME280;66122;47.130;16.844;2024-03-02T14:18:29;98980.78;;;14.29;80.10
77149;BME280;66122;47.130;16.844;2024-03-02T14:28:31;98981.09;;;14.90;71.34
77149;BME280;66122;47.130;16.844;2024-03-02T14:38:58;98990.13;;;14.45;71.94
77149;BME280;66122;47.130;16.844;2024-03-02T14:49:13;98965.69;;;14.18;75.77
77149;BME280;66122;47.130;16.844;2024-03-02T14:59:23;98989.22;;;13.91;75.07
77149;BME280;66122;47.130;16.844;2024-03-02T15:09:32;98965.63;;;13.64;75.47
77149;BME280;66122;47.130;16.844;2024-03-02T15:19:39;98984.88;;;13.79;76.35
77149;BME280;66122;47.130;16.844;2024-03-02T15:29:42;98992.50;;;13.50;81.33
77149;BME280;66122;47.130;16.844;2024-03-02T15:39:51;98960.78;;;13.24;81.65
77149;BME280;66122;47.130;16.844;2024-03-02T15:50:14;98969.00;;;12.86;83.96
77149;BME280;66122;47.130;16.844;2024-03-02T16:00:21;98966.00;;;12.56;85.65
77149;BME280;66122;47.130;16.844;2024-03-02T16:10:25;98937.94;;;12.17;87.90
77149;BME280;66122;47.130;16.844;2024-03-02T16:20:32;98947.56;;;11.94;90.09
77149;BME280;66122;47.130;16.844;2024-03-02T16:30:42;98950.34;;;11.67;91.98
77149;BME280;66122;47.130;16.844;2024-03-02T16:40:51;98938.97;;;11.29;94.48
77149;BME280;66122;47.130;16.844;2024-03-02T16:50:57;98994.13;;;11.24;96.87
77149;BME280;66122;47.130;16.844;2024-03-02T17:01:04;98985.41;;;10.96;99.38
77149;BME280;66122;47.130;16.844;2024-03-02T17:11:09;99010.06;;;10.72;100.00
77149;BME280;66122;47.130;16.844;2024-03-02T17:21:12;99007.22;;;10.48;100.00
77149;BME280;66122;47.130;16.844;2024-03-02T17:31:16;99015.44;;;10.16;100.00
77149;BME280;66122;47.130;16.844;2024-03-02T17:41:26;99019.84;;;9.75;100.00
77149;BME280;66122;47.130;16.844;2024-03-02T17:51:39;99042.34;;;9.68;100.00
77149;BME280;66122;47.130;16.844;2024-03-02T18:01:43;99046.50;;;9.44;100.00
77149;BME280;66122;47.130;16.844;2024-03-02T18:11:46;99028.78;;;9.16;100.00
77149;BME280;66122;47.130;16.844;2024-03-02T18:21:51;99035.25;;;8.96;100.00
77149;BME280;66122;47.130;16.844;2024-03-02T18:31:54;99050.13;;;8.83;100.00
77149;BME280;66122;47.130;16.844;2024-03-02T18:41:58;99042.03;;;8.56;100.00
77149;BME280;66122;47.130;16.844;2024-03-02T18:52:03;99066.38;;;8.61;100.00
77149;BME280;66122;47.130;16.844;2024-03-02T19:02:06;99065.34;;;8.64;100.00
77149;BME280;66122;47.130;16.844;2024-03-02T19:12:10;99050.22;;;8.36;100.00
77149;BME280;66122;47.130;16.844;2024-03-02T19:22:13;99055.69;;;8.33;100.00
77149;BME280;66122;47.130;16.844;2024-03-02T19:32:16;99039.81;;;8.17;100.00
77149;BME280;66122;47.130;16.844;2024-03-02T19:42:24;99031.97;;;8.00;100.00
77149;BME280;66122;47.130;16.844;2024-03-02T19:52:28;99053.59;;;7.91;100.00
77149;BME280;66122;47.130;16.844;2024-03-02T20:02:37;99044.34;;;7.66;100.00
77149;BME280;66122;47.130;16.844;2024-03-02T20:12:50;99053.06;;;7.84;100.00
77149;BME280;66122;47.130;16.844;2024-03-02T20:22:58;99054.16;;;7.80;100.00
77149;BME280;66122;47.130;16.844;2024-03-02T20:33:01;99018.06;;;7.49;100.00
77149;BME280;66122;47.130;16.844;2024-03-02T20:43:05;99046.47;;;7.60;100.00
77149;BME280;66122;47.130;16.844;2024-03-02T20:53:15;99043.75;;;7.61;100.00
77149;BME280;66122;47.130;16.844;2024-03-02T21:03:42;99026.09;;;7.63;100.00
77149;BME280;66122;47.130;16.844;2024-03-02T21:13:52;99037.31;;;7.67;100.00
77149;BME280;66122;47.130;16.844;2024-03-02T21:24:06;99026.13;;;7.46;100.00
77149;BME280;66122;47.130;16.844;2024-03-02T21:34:12;99009.59;;;7.27;100.00
77149;BME280;66122;47.130;16.844;2024-03-02T21:44:20;99029.03;;;7.57;100.00
77149;BME280;66122;47.130;16.844;2024-03-02T21:54:28;99013.59;;;7.50;100.00
77149;BME280;66122;47.130;16.844;2024-03-02T22:04:30;99010.63;;;7.40;100.00
77149;BME280;66122;47.130;16.844;2024-03-02T22:14:34;99056.75;;;7.49;100.00
77149;BME280;66122;47.130;16.844;2024-03-02T22:24:43;99064.53;;;7.34;100.00
77149;BME280;66122;47.130;16.844;2024-03-02T22:34:47;99028.91;;;7.10;100.00
77149;BME280;66122;47.130;16.844;2024-03-02T22:44:57;99044.31;;;7.18;100.00
77149;BME280;66122;47.130;16.844;2024-03-02T22:55:01;99018.16;;;6.97;100.00
77149;BME280;66122;47.130;16.844;2024-03-02T23:05:04;99003.09;;;6.99;100.00
77149;BME280;66122;47.130;16.844;2024-03-02T23:15:14;99010.53;;;7.09;100.00
77149;BME280;66122;47.130;16.844;2024-03-02T23:25:22;98997.13;;;7.13;100.00
77149;BME280;66122;47.130;16.844;2024-03-02T23:35:30;99009.78;;;7.39;100.00
77149;BME280;66122;47.130;16.844;2024-03-02T23:45:41;99006.56;;;7.50;100.00
77149;BME280;66122;47.130;16.844;2024-03-02T23:55:57;99007.78;;;7.60;100.00
